Cancún International Airport
MMUN : now visible

Airfield :











YOU CAN JOIN US ON...

 
LOGIN :

Register | Disclaimer

   EN    FR    IT 

 









Legend :    VFR   Marginal VFR   IFR   Intensive IFR   Very Intensive IFR
Visi :
Ceiling :
>= 8 km
>= 3000ft
5 to 8 km
1000 to 3000 ft
1500m to 5 km
500 to 1000 ft
800 to 1500m
200 to 500 ft
< 800m
< 200 ft
Symbols :   Thunderstorms  Fog  Heavy snow  Heavy precipitations  Wind > 20 kt







- Airport Elevation : 20 ft
- IATA code : CUN


MMUN - Cancún International

CURRENT METAR :
  • 212147Z 07011KT 7SM BKN015CB BKN250 28/25 A2988 RMK 8/308 OCNL DROPS AC PCPN N

EXPIRED METARs :
  • 212048Z 06006KT 7SM FEW015TCU SCT080 BKN250 30/24 A2989 RMK SLP124 57011 910 60005 8/263 SC CB AND PCPN NW
  • 212002Z 12009KT 7SM BKN015CB BKN250 29/25 A2989 RMK 8/308 RAE55
  • 211948Z 07010KT 6SM -RA BKN015CB BKN250 30/25 A2990 RMK 60005 8/308 RAB45

TAF TAF MMUN
Valid from the 21 at 18:00 until the 23 at 00:00 UTC


211701Z 2118/2224 05010KT P6SM VC RA BKN015 TX31/2118Z TN24/2210Z
TEMPO 2120/2124 5SM RA BKN015CB
FM220100 00000KT P6SM SCT015 BKN250
FM221200 09010KT 5SM RA BKN010CB
FM221600 06012KT P6SM BKN015
PROB40 2217/2221 3SM RA BKN010CB
No reported NOTAMs for that airfield.



MET'MAP, your aeronautical weather chart ! - Copyright ORBIFLY December 2007 - Disclaimer

ORBIFLY MET'MAP TEAM :

Programming & Development : Alexandra Zaïnal
Concept & Development : Baudouin d'Aumeries
Co-Development & Prog : Marc-Olivier Méhu
Technical & hardware support : Manuel Goepfert

Contact : metmap@orbifly.com




SOURCES & CREDITS :

   NOAA       Earth
Advisory